sensor_id;sensor_type;location;lat;lon;timestamp;pressure;altitude;pressure_sealevel;temperature;humidity
30081;BME280;16902;50.816;12.828;2023-03-26T00:02:44;96800.28;;;6.25;100.00
30081;BME280;16902;50.816;12.828;2023-03-26T00:07:46;96790.53;;;6.27;100.00
30081;BME280;16902;50.816;12.828;2023-03-26T00:12:49;96802.16;;;6.31;100.00
30081;BME280;16902;50.816;12.828;2023-03-26T00:17:50;96809.44;;;6.28;100.00
30081;BME280;16902;50.816;12.828;2023-03-26T00:22:55;96803.22;;;6.37;100.00
30081;BME280;16902;50.816;12.828;2023-03-26T00:27:56;96800.91;;;6.42;100.00
30081;BME280;16902;50.816;12.828;2023-03-26T00:32:58;96806.81;;;6.51;100.00
30081;BME280;16902;50.816;12.828;2023-03-26T00:38:00;96804.03;;;6.52;100.00
30081;BME280;16902;50.816;12.828;2023-03-26T00:43:02;96805.81;;;6.52;100.00
30081;BME280;16902;50.816;12.828;2023-03-26T00:48:10;96802.63;;;6.50;100.00
30081;BME280;16902;50.816;12.828;2023-03-26T00:53:14;96805.16;;;6.20;100.00
30081;BME280;16902;50.816;12.828;2023-03-26T00:58:16;96802.28;;;6.00;100.00
30081;BME280;16902;50.816;12.828;2023-03-26T01:03:19;96784.88;;;5.94;100.00
30081;BME280;16902;50.816;12.828;2023-03-26T01:08:33;96806.50;;;5.93;100.00
30081;BME280;16902;50.816;12.828;2023-03-26T01:13:37;96785.53;;;5.88;100.00
30081;BME280;16902;50.816;12.828;2023-03-26T01:18:38;96810.88;;;5.92;100.00
30081;BME280;16902;50.816;12.828;2023-03-26T01:23:47;96799.84;;;5.99;100.00
30081;BME280;16902;50.816;12.828;2023-03-26T01:28:54;96794.00;;;6.05;100.00
30081;BME280;16902;50.816;12.828;2023-03-26T01:39:15;96799.09;;;6.28;100.00
30081;BME280;16902;50.816;12.828;2023-03-26T01:49:35;96807.13;;;6.33;100.00
30081;BME280;16902;50.816;12.828;2023-03-26T01:54:37;96805.50;;;6.17;100.00
30081;BME280;16902;50.816;12.828;2023-03-26T02:05:16;96803.97;;;5.62;100.00
30081;BME280;16902;50.816;12.828;2023-03-26T02:10:28;96811.75;;;5.54;100.00
30081;BME280;16902;50.816;12.828;2023-03-26T02:15:30;96792.56;;;5.56;100.00
30081;BME280;16902;50.816;12.828;2023-03-26T02:20:32;96793.38;;;5.57;100.00
30081;BME280;16902;50.816;12.828;2023-03-26T02:25:33;96792.84;;;5.61;100.00
30081;BME280;16902;50.816;12.828;2023-03-26T02:30:37;96793.38;;;5.57;100.00
30081;BME280;16902;50.816;12.828;2023-03-26T02:35:40;96788.03;;;5.58;100.00
30081;BME280;16902;50.816;12.828;2023-03-26T02:40:46;96784.97;;;5.55;100.00
30081;BME280;16902;50.816;12.828;2023-03-26T02:45:48;96783.88;;;5.49;100.00
30081;BME280;16902;50.816;12.828;2023-03-26T02:51:24;96779.22;;;5.45;100.00
30081;BME280;16902;50.816;12.828;2023-03-26T02:56:33;96775.06;;;5.44;100.00
30081;BME280;16902;50.816;12.828;2023-03-26T03:02:13;96775.06;;;5.44;100.00
30081;BME280;16902;50.816;12.828;2023-03-26T03:07:15;96767.94;;;5.46;100.00
30081;BME280;16902;50.816;12.828;2023-03-26T03:12:18;96769.19;;;5.50;100.00
30081;BME280;16902;50.816;12.828;2023-03-26T03:17:20;96770.69;;;5.67;100.00
30081;BME280;16902;50.816;12.828;2023-03-26T03:22:21;96768.97;;;5.82;100.00
30081;BME280;16902;50.816;12.828;2023-03-26T03:27:24;96776.31;;;5.93;100.00
30081;BME280;16902;50.816;12.828;2023-03-26T03:32:35;96781.75;;;5.99;100.00
30081;BME280;16902;50.816;12.828;2023-03-26T03:37:38;96788.16;;;5.80;100.00
30081;BME280;16902;50.816;12.828;2023-03-26T03:42:41;96778.53;;;5.51;100.00
30081;BME280;16902;50.816;12.828;2023-03-26T03:47:44;96771.19;;;5.39;100.00
30081;BME280;16902;50.816;12.828;2023-03-26T03:52:48;96756.03;;;5.36;100.00
30081;BME280;16902;50.816;12.828;2023-03-26T03:57:51;96755.59;;;5.33;100.00
30081;BME280;16902;50.816;12.828;2023-03-26T04:02:56;96756.41;;;5.33;100.00
30081;BME280;16902;50.816;12.828;2023-03-26T04:08:02;96750.56;;;5.39;100.00
30081;BME280;16902;50.816;12.828;2023-03-26T04:13:24;96757.78;;;5.44;100.00
30081;BME280;16902;50.816;12.828;2023-03-26T04:18:28;96756.75;;;5.53;100.00
30081;BME280;16902;50.816;12.828;2023-03-26T04:23:39;96753.19;;;5.54;100.00
30081;BME280;16902;50.816;12.828;2023-03-26T04:29:06;96757.22;;;5.57;100.00
30081;BME280;16902;50.816;12.828;2023-03-26T04:34:22;96754.75;;;5.63;100.00
30081;BME280;16902;50.816;12.828;2023-03-26T04:39:36;96739.88;;;5.65;100.00
30081;BME280;16902;50.816;12.828;2023-03-26T04:44:57;96748.72;;;5.71;100.00
30081;BME280;16902;50.816;12.828;2023-03-26T04:50:00;96745.09;;;5.80;100.00
30081;BME280;16902;50.816;12.828;2023-03-26T04:55:04;96751.69;;;5.83;100.00
30081;BME280;16902;50.816;12.828;2023-03-26T05:00:08;96762.81;;;5.83;100.00
30081;BME280;16902;50.816;12.828;2023-03-26T05:05:27;96756.28;;;5.73;100.00
30081;BME280;16902;50.816;12.828;2023-03-26T05:10:32;96756.19;;;5.66;100.00
30081;BME280;16902;50.816;12.828;2023-03-26T05:15:48;96757.13;;;5.65;100.00
30081;BME280;16902;50.816;12.828;2023-03-26T05:21:05;96759.19;;;5.70;100.00
30081;BME280;16902;50.816;12.828;2023-03-26T05:26:08;96760.47;;;5.74;100.00
30081;BME280;16902;50.816;12.828;2023-03-26T05:31:10;96755.59;;;5.79;100.00
30081;BME280;16902;50.816;12.828;2023-03-26T05:36:17;96760.03;;;5.85;100.00
30081;BME280;16902;50.816;12.828;2023-03-26T05:41:48;96763.59;;;5.92;100.00
30081;BME280;16902;50.816;12.828;2023-03-26T05:46:52;96761.88;;;5.99;100.00
30081;BME280;16902;50.816;12.828;2023-03-26T05:51:57;96748.28;;;6.05;100.00
30081;BME280;16902;50.816;12.828;2023-03-26T05:57:09;96746.59;;;6.12;100.00
30081;BME280;16902;50.816;12.828;2023-03-26T06:02:29;96746.41;;;6.14;100.00
30081;BME280;16902;50.816;12.828;2023-03-26T06:08:07;96732.81;;;6.20;100.00
30081;BME280;16902;50.816;12.828;2023-03-26T06:13:11;96734.06;;;6.24;100.00
30081;BME280;16902;50.816;12.828;2023-03-26T06:18:14;96729.69;;;6.25;100.00
30081;BME280;16902;50.816;12.828;2023-03-26T06:23:33;96724.25;;;6.34;100.00
30081;BME280;16902;50.816;12.828;2023-03-26T06:28:35;96726.13;;;6.40;100.00
30081;BME280;16902;50.816;12.828;2023-03-26T06:34:02;96715.50;;;6.50;100.00
30081;BME280;16902;50.816;12.828;2023-03-26T06:39:04;96725.75;;;6.58;100.00
30081;BME280;16902;50.816;12.828;2023-03-26T06:44:10;96723.44;;;6.63;100.00
30081;BME280;16902;50.816;12.828;2023-03-26T06:49:30;96722.91;;;6.68;100.00
30081;BME280;16902;50.816;12.828;2023-03-26T06:55:00;96721.59;;;6.93;100.00
30081;BME280;16902;50.816;12.828;2023-03-26T07:00:38;96720.09;;;7.20;100.00
30081;BME280;16902;50.816;12.828;2023-03-26T07:05:58;96717.16;;;7.45;100.00
30081;BME280;16902;50.816;12.828;2023-03-26T07:11:38;96703.38;;;7.66;100.00
30081;BME280;16902;50.816;12.828;2023-03-26T07:17:15;96696.72;;;7.57;100.00
30081;BME280;16902;50.816;12.828;2023-03-26T07:22:35;96696.84;;;7.70;100.00
30081;BME280;16902;50.816;12.828;2023-03-26T07:28:04;96700.16;;;7.64;100.00
30081;BME280;16902;50.816;12.828;2023-03-26T07:33:36;96699.28;;;7.78;100.00
30081;BME280;16902;50.816;12.828;2023-03-26T07:49:55;96687.47;;;7.69;100.00
30081;BME280;16902;50.816;12.828;2023-03-26T07:55:12;96691.97;;;8.16;100.00
30081;BME280;16902;50.816;12.828;2023-03-26T08:00:41;96682.00;;;8.13;100.00
30081;BME280;16902;50.816;12.828;2023-03-26T08:17:12;96670.78;;;8.41;100.00
30081;BME280;16902;50.816;12.828;2023-03-26T08:22:18;96669.31;;;8.73;100.00
30081;BME280;16902;50.816;12.828;2023-03-26T08:27:35;96665.34;;;8.84;100.00
30081;BME280;16902;50.816;12.828;2023-03-26T08:32:38;96657.22;;;9.07;100.00
30081;BME280;16902;50.816;12.828;2023-03-26T08:37:40;96648.84;;;9.05;100.00
30081;BME280;16902;50.816;12.828;2023-03-26T08:43:26;96646.03;;;9.13;100.00
30081;BME280;16902;50.816;12.828;2023-03-26T09:21:06;96630.09;;;9.49;100.00
30081;BME280;16902;50.816;12.828;2023-03-26T09:26:24;96634.25;;;9.90;100.00
30081;BME280;16902;50.816;12.828;2023-03-26T09:37:11;96623.53;;;10.44;100.00
30081;BME280;16902;50.816;12.828;2023-03-26T09:42:44;96598.88;;;11.17;100.00
30081;BME280;16902;50.816;12.828;2023-03-26T10:09:54;96555.47;;;11.54;100.00
30081;BME280;16902;50.816;12.828;2023-03-26T10:25:50;96529.94;;;11.81;100.00
30081;BME280;16902;50.816;12.828;2023-03-26T10:31:38;96532.72;;;11.86;100.00
30081;BME280;16902;50.816;12.828;2023-03-26T10:52:11;96509.69;;;12.31;100.00
30081;BME280;16902;50.816;12.828;2023-03-26T11:08:13;96506.91;;;11.78;100.00
30081;BME280;16902;50.816;12.828;2023-03-26T11:18:55;96488.22;;;11.63;100.00
30081;BME280;16902;50.816;12.828;2023-03-26T11:30:12;96492.94;;;11.11;100.00
30081;BME280;16902;50.816;12.828;2023-03-26T11:35:20;96492.41;;;11.45;100.00
30081;BME280;16902;50.816;12.828;2023-03-26T11:40:45;96490.06;;;11.19;100.00
30081;BME280;16902;50.816;12.828;2023-03-26T11:46:11;96484.75;;;11.07;100.00
30081;BME280;16902;50.816;12.828;2023-03-26T11:51:29;96486.63;;;10.75;100.00
30081;BME280;16902;50.816;12.828;2023-03-26T11:56:38;96489.06;;;10.95;100.00
30081;BME280;16902;50.816;12.828;2023-03-26T12:12:26;96478.75;;;10.81;100.00
30081;BME280;16902;50.816;12.828;2023-03-26T12:17:35;96471.81;;;10.44;100.00
30081;BME280;16902;50.816;12.828;2023-03-26T12:22:38;96471.53;;;10.20;100.00
30081;BME280;16902;50.816;12.828;2023-03-26T12:32:49;96478.53;;;9.75;100.00
30081;BME280;16902;50.816;12.828;2023-03-26T12:37:55;96484.31;;;8.66;100.00
30081;BME280;16902;50.816;12.828;2023-03-26T12:43:51;96478.69;;;8.42;100.00
30081;BME280;16902;50.816;12.828;2023-03-26T12:49:13;96484.41;;;8.31;100.00
30081;BME280;16902;50.816;12.828;2023-03-26T12:54:57;96480.53;;;8.07;100.00
30081;BME280;16902;50.816;12.828;2023-03-26T13:10:55;96482.00;;;7.27;100.00
30081;BME280;16902;50.816;12.828;2023-03-26T13:16:08;96476.16;;;7.18;100.00
30081;BME280;16902;50.816;12.828;2023-03-26T13:26:47;96464.34;;;7.37;100.00
30081;BME280;16902;50.816;12.828;2023-03-26T13:32:11;96459.59;;;7.13;100.00
30081;BME280;16902;50.816;12.828;2023-03-26T13:47:33;96457.59;;;6.09;100.00
30081;BME280;16902;50.816;12.828;2023-03-26T13:52:43;96455.44;;;6.34;100.00
30081;BME280;16902;50.816;12.828;2023-03-26T13:57:57;96443.97;;;6.43;100.00
30081;BME280;16902;50.816;12.828;2023-03-26T14:08:46;96432.16;;;6.34;100.00
30081;BME280;16902;50.816;12.828;2023-03-26T14:14:05;96437.00;;;6.23;100.00
30081;BME280;16902;50.816;12.828;2023-03-26T14:30:22;96411.25;;;6.57;100.00
30081;BME280;16902;50.816;12.828;2023-03-26T14:35:45;96401.66;;;6.51;100.00
30081;BME280;16902;50.816;12.828;2023-03-26T14:52:00;96389.97;;;6.55;100.00
30081;BME280;16902;50.816;12.828;2023-03-26T15:13:06;96373.31;;;6.92;100.00
30081;BME280;16902;50.816;12.828;2023-03-26T15:39:42;96360.97;;;6.60;100.00
30081;BME280;16902;50.816;12.828;2023-03-26T16:11:47;96335.78;;;6.40;100.00
30081;BME280;16902;50.816;12.828;2023-03-26T16:16:57;96334.56;;;6.36;100.00
30081;BME280;16902;50.816;12.828;2023-03-26T16:22:00;96338.56;;;6.39;100.00
30081;BME280;16902;50.816;12.828;2023-03-26T16:32:22;96325.56;;;6.32;100.00
30081;BME280;16902;50.816;12.828;2023-03-26T16:37:38;96326.44;;;6.39;100.00
30081;BME280;16902;50.816;12.828;2023-03-26T16:48:28;96335.63;;;5.99;100.00
30081;BME280;16902;50.816;12.828;2023-03-26T16:53:54;96333.44;;;5.96;100.00
30081;BME280;16902;50.816;12.828;2023-03-26T16:59:06;96333.16;;;5.91;100.00
30081;BME280;16902;50.816;12.828;2023-03-26T17:04:19;96333.72;;;5.86;100.00
30081;BME280;16902;50.816;12.828;2023-03-26T17:20:15;96335.97;;;5.53;100.00
30081;BME280;16902;50.816;12.828;2023-03-26T17:41:47;96350.16;;;5.43;100.00
30081;BME280;16902;50.816;12.828;2023-03-26T17:46:38;96350.06;;;5.36;100.00
30081;BME280;16902;50.816;12.828;2023-03-26T17:52:00;96351.91;;;5.57;100.00
30081;BME280;16902;50.816;12.828;2023-03-26T17:57:31;96346.63;;;5.29;100.00
30081;BME280;16902;50.816;12.828;2023-03-26T18:02:36;96340.16;;;5.18;100.00
30081;BME280;16902;50.816;12.828;2023-03-26T18:18:12;96339.69;;;5.29;100.00
30081;BME280;16902;50.816;12.828;2023-03-26T18:23:32;96339.69;;;5.29;100.00
30081;BME280;16902;50.816;12.828;2023-03-26T18:28:41;96343.81;;;5.24;100.00
30081;BME280;16902;50.816;12.828;2023-03-26T18:33:46;96340.84;;;5.41;100.00
30081;BME280;16902;50.816;12.828;2023-03-26T18:38:48;96334.19;;;5.32;100.00
30081;BME280;16902;50.816;12.828;2023-03-26T18:43:50;96333.47;;;5.24;100.00
30081;BME280;16902;50.816;12.828;2023-03-26T18:48:52;96336.50;;;5.27;100.00
30081;BME280;16902;50.816;12.828;2023-03-26T18:54:02;96342.19;;;5.37;100.00
30081;BME280;16902;50.816;12.828;2023-03-26T18:59:31;96341.50;;;5.50;100.00
30081;BME280;16902;50.816;12.828;2023-03-26T19:04:36;96337.13;;;5.51;100.00
30081;BME280;16902;50.816;12.828;2023-03-26T19:09:39;96332.97;;;5.50;100.00
30081;BME280;16902;50.816;12.828;2023-03-26T19:19:59;96312.66;;;5.25;100.00
30081;BME280;16902;50.816;12.828;2023-03-26T19:25:02;96315.47;;;5.30;100.00
30081;BME280;16902;50.816;12.828;2023-03-26T19:30:05;96311.88;;;5.46;100.00
30081;BME280;16902;50.816;12.828;2023-03-26T19:35:19;96313.91;;;5.51;100.00
30081;BME280;16902;50.816;12.828;2023-03-26T19:40:22;96301.94;;;5.43;100.00
30081;BME280;16902;50.816;12.828;2023-03-26T19:45:33;96298.81;;;5.48;100.00
30081;BME280;16902;50.816;12.828;2023-03-26T19:50:40;96297.88;;;5.55;100.00
30081;BME280;16902;50.816;12.828;2023-03-26T20:01:27;96282.75;;;5.52;100.00
30081;BME280;16902;50.816;12.828;2023-03-26T20:06:29;96270.03;;;5.51;100.00
30081;BME280;16902;50.816;12.828;2023-03-26T20:11:44;96264.84;;;5.51;100.00
30081;BME280;16902;50.816;12.828;2023-03-26T20:16:47;96255.09;;;5.46;100.00
30081;BME280;16902;50.816;12.828;2023-03-26T20:21:49;96254.00;;;5.34;100.00
30081;BME280;16902;50.816;12.828;2023-03-26T20:26:53;96248.84;;;5.34;100.00
30081;BME280;16902;50.816;12.828;2023-03-26T20:31:55;96249.97;;;5.31;100.00
30081;BME280;16902;50.816;12.828;2023-03-26T20:36:56;96250.81;;;5.32;100.00
30081;BME280;16902;50.816;12.828;2023-03-26T20:42:02;96254.59;;;5.36;100.00
30081;BME280;16902;50.816;12.828;2023-03-26T20:47:04;96245.13;;;5.22;100.00
30081;BME280;16902;50.816;12.828;2023-03-26T20:52:06;96249.69;;;5.20;100.00
30081;BME280;16902;50.816;12.828;2023-03-26T20:57:09;96248.78;;;5.12;100.00
30081;BME280;16902;50.816;12.828;2023-03-26T21:02:12;96254.22;;;5.18;100.00
30081;BME280;16902;50.816;12.828;2023-03-26T21:07:14;96251.47;;;5.19;100.00
30081;BME280;16902;50.816;12.828;2023-03-26T21:12:33;96260.09;;;5.11;100.00
30081;BME280;16902;50.816;12.828;2023-03-26T21:17:43;96263.97;;;5.01;100.00
30081;BME280;16902;50.816;12.828;2023-03-26T21:33:43;96269.66;;;4.96;100.00
30081;BME280;16902;50.816;12.828;2023-03-26T21:38:45;96273.94;;;4.89;100.00
30081;BME280;16902;50.816;12.828;2023-03-26T21:43:48;96279.66;;;4.84;100.00
30081;BME280;16902;50.816;12.828;2023-03-26T21:48:49;96284.34;;;4.81;100.00
30081;BME280;16902;50.816;12.828;2023-03-26T21:53:52;96283.63;;;4.87;100.00
30081;BME280;16902;50.816;12.828;2023-03-26T22:09:19;96286.47;;;4.92;100.00
30081;BME280;16902;50.816;12.828;2023-03-26T22:14:36;96298.81;;;4.97;100.00
30081;BME280;16902;50.816;12.828;2023-03-26T22:19:39;96290.34;;;5.03;100.00
30081;BME280;16902;50.816;12.828;2023-03-26T22:24:41;96295.88;;;5.14;100.00
30081;BME280;16902;50.816;12.828;2023-03-26T22:29:43;96302.84;;;4.99;100.00
30081;BME280;16902;50.816;12.828;2023-03-26T22:34:45;96311.00;;;4.88;100.00
30081;BME280;16902;50.816;12.828;2023-03-26T22:39:46;96317.53;;;4.84;100.00
30081;BME280;16902;50.816;12.828;2023-03-26T22:44:48;96327.75;;;4.77;100.00
30081;BME280;16902;50.816;12.828;2023-03-26T22:49:50;96319.66;;;4.66;100.00
30081;BME280;16902;50.816;12.828;2023-03-26T22:54:52;96325.63;;;4.66;100.00
30081;BME280;16902;50.816;12.828;2023-03-26T22:59:54;96329.78;;;4.67;100.00
30081;BME280;16902;50.816;12.828;2023-03-26T23:04:56;96340.56;;;4.71;100.00
30081;BME280;16902;50.816;12.828;2023-03-26T23:09:58;96349.69;;;4.73;100.00
30081;BME280;16902;50.816;12.828;2023-03-26T23:14:59;96355.75;;;4.80;100.00
30081;BME280;16902;50.816;12.828;2023-03-26T23:20:06;96360.91;;;4.80;100.00
30081;BME280;16902;50.816;12.828;2023-03-26T23:25:17;96369.63;;;4.64;100.00
30081;BME280;16902;50.816;12.828;2023-03-26T23:30:20;96368.38;;;4.60;100.00
30081;BME280;16902;50.816;12.828;2023-03-26T23:35:22;96372.25;;;4.56;100.00
30081;BME280;16902;50.816;12.828;2023-03-26T23:40:24;96380.97;;;4.55;100.00
30081;BME280;16902;50.816;12.828;2023-03-26T23:45:26;96378.41;;;4.55;100.00
30081;BME280;16902;50.816;12.828;2023-03-26T23:50:28;96386.47;;;4.52;100.00
30081;BME280;16902;50.816;12.828;2023-03-26T23:55:30;96387.09;;;4.54;100.00
